Time;durP1;ratioP1;P1;durP2;ratioP2;P2;SDS_P1;SDS_P2;PMS_P1;PMS_P2;Temp;Humidity;BMP_temperature;BMP_pressure;BME280_temperature;BME280_humidity;BME280_pressure;Samples;Min_cycle;Max_cycle;Signal;HPM_P1;HPM_P2
2022/03/14 00:01:06;;;;;;;11.95;5.88;;;;;;;2.91;29.03;99725.56;4999080;28;20050;-63
2022/03/14 00:03:55;;;;;;;11.18;5.60;;;;;;;2.87;28.87;99726.53;5012910;28;20053;-63
2022/03/14 00:06:39;;;;;;;11.38;6.03;;;;;;;2.82;29.07;99722.28;5012688;28;20057;-63
2022/03/14 00:09:24;;;;;;;9.25;5.72;;;;;;;2.71;29.45;99726.81;5015259;28;20049;-63
2022/03/14 00:12:13;;;;;;;10.52;5.68;;;;;;;2.77;29.12;99724.13;5018644;28;20049;-63
2022/03/14 00:14:59;;;;;;;11.88;5.82;;;;;;;2.91;29.10;99723.81;5014279;28;20062;-63
2022/03/14 00:17:45;;;;;;;9.45;5.70;;;;;;;2.82;29.24;99732.63;5014087;28;20089;-63
2022/03/14 00:20:31;;;;;;;11.07;5.57;;;;;;;2.78;29.16;99728.41;5013858;28;20049;-62
2022/03/14 00:23:19;;;;;;;9.82;6.22;;;;;;;2.95;29.01;99730.63;5012506;28;20042;-63
2022/03/14 00:26:07;;;;;;;11.52;5.55;;;;;;;2.88;29.16;99730.81;5012166;28;20049;-63
2022/03/14 00:28:52;;;;;;;11.50;5.75;;;;;;;2.80;29.41;99741.31;5012310;28;20046;-61
2022/03/14 00:31:37;;;;;;;11.52;5.63;;;;;;;2.71;29.38;99727.69;4999218;28;20100;-63
2022/03/14 00:34:22;;;;;;;11.57;5.63;;;;;;;2.75;29.44;99736.25;5012435;28;20061;-63
2022/03/14 00:37:07;;;;;;;11.95;6.00;;;;;;;2.90;29.43;99722.13;5013037;28;20042;-63
2022/03/14 00:39:53;;;;;;;9.82;5.30;;;;;;;2.86;29.61;99735.19;5026092;28;20034;-63
2022/03/14 00:42:39;;;;;;;10.73;5.32;;;;;;;2.88;29.60;99729.06;5012228;28;20131;-63
2022/03/14 00:45:25;;;;;;;9.90;6.05;;;;;;;2.76;29.92;99737.94;5011900;28;20046;-63
2022/03/14 00:48:10;;;;;;;10.90;5.63;;;;;;;2.66;30.08;99739.88;5012948;28;20405;-62
2022/03/14 00:50:55;;;;;;;13.90;6.35;;;;;;;2.51;30.22;99735.88;5013371;28;20053;-62
2022/03/14 00:53:40;;;;;;;10.70;5.43;;;;;;;2.49;30.35;99734.19;5012881;28;20046;-62
2022/03/14 00:56:27;;;;;;;11.13;6.10;;;;;;;2.75;30.00;99749.19;5012695;28;20077;-64
2022/03/14 00:59:11;;;;;;;10.52;6.00;;;;;;;2.55;30.27;99734.91;5025877;28;20125;-62
2022/03/14 01:01:56;;;;;;;10.55;6.00;;;;;;;2.58;30.11;99752.97;5012662;28;20448;-62
2022/03/14 01:04:45;;;;;;;10.68;6.03;;;;;;;2.35;30.59;99737.88;5013060;28;20046;-62
2022/03/14 01:07:34;;;;;;;11.05;5.97;;;;;;;2.40;30.40;99736.06;5011816;28;20053;-62
2022/03/14 01:10:23;;;;;;;10.20;5.35;;;;;;;2.53;30.12;99744.44;5011210;28;20135;-63
2022/03/14 01:13:10;;;;;;;12.65;6.00;;;;;;;2.61;29.99;99733.09;5011667;28;20057;-62
2022/03/14 01:15:55;;;;;;;11.85;5.38;;;;;;;2.54;29.82;99742.72;5011890;28;20050;-62
2022/03/14 01:18:40;;;;;;;10.07;5.68;;;;;;;2.74;29.69;99741.47;5011783;28;20049;-63
2022/03/14 01:21:25;;;;;;;10.77;5.97;;;;;;;2.50;29.87;99735.91;5011312;28;20072;-62
2022/03/14 01:24:10;;;;;;;11.57;5.97;;;;;;;2.36;30.19;99741.31;5012336;28;20084;-62
2022/03/14 01:26:55;;;;;;;9.25;5.80;;;;;;;2.26;30.20;99733.75;5011990;28;20520;-62
2022/03/14 01:29:39;;;;;;;9.98;5.90;;;;;;;2.48;30.06;99743.66;5011310;28;20088;-62
2022/03/14 01:32:24;;;;;;;11.75;6.43;;;;;;;2.42;30.01;99746.38;5012282;28;20419;-62
2022/03/14 01:35:08;;;;;;;11.27;6.40;;;;;;;2.51;30.08;99732.41;5012300;28;20045;-62
2022/03/14 01:37:54;;;;;;;10.27;5.70;;;;;;;2.18;30.45;99733.91;5012179;28;20080;-63
2022/03/14 01:40:41;;;;;;;10.93;6.15;;;;;;;2.12;30.52;99734.00;5011087;28;20698;-63
2022/03/14 01:43:26;;;;;;;9.75;5.65;;;;;;;2.08;30.40;99734.94;5024902;28;20130;-62
2022/03/14 01:46:15;;;;;;;12.65;5.88;;;;;;;2.14;30.59;99734.81;5011943;28;20038;-62
2022/03/14 01:49:01;;;;;;;12.90;5.88;;;;;;;2.05;30.55;99737.56;5011551;28;20058;-62
2022/03/14 01:51:45;;;;;;;12.13;6.43;;;;;;;2.09;30.63;99727.16;5011625;28;20382;-63
2022/03/14 01:54:30;;;;;;;13.65;6.38;;;;;;;2.29;30.33;99735.41;5011845;28;20045;-62
2022/03/14 01:57:15;;;;;;;13.95;6.57;;;;;;;1.90;31.06;99738.69;5011670;28;20046;-62
2022/03/14 02:00:00;;;;;;;9.90;6.18;;;;;;;1.78;31.12;99735.44;5011774;28;20049;-62
2022/03/14 02:02:47;;;;;;;12.35;6.13;;;;;;;1.86;31.41;99739.63;5011623;28;20052;-62
2022/03/14 02:05:35;;;;;;;12.10;6.53;;;;;;;1.76;31.62;99733.75;5011666;28;20129;-62
2022/03/14 02:08:20;;;;;;;12.93;6.43;;;;;;;1.69;31.67;99739.03;5011442;28;20099;-63
2022/03/14 02:11:05;;;;;;;13.40;5.90;;;;;;;1.83;31.57;99728.47;5018916;28;20069;-63
2022/03/14 02:13:50;;;;;;;11.18;6.40;;;;;;;1.70;31.57;99732.13;5015935;28;20049;-63
2022/03/14 02:16:35;;;;;;;14.45;6.43;;;;;;;1.78;31.55;99737.19;4996924;28;20042;-63
2022/03/14 02:19:20;;;;;;;14.70;6.28;;;;;;;1.62;31.69;99726.25;5011721;28;20074;-61
2022/03/14 02:22:08;;;;;;;14.90;6.13;;;;;;;1.67;31.54;99714.09;5011333;28;20505;-63
2022/03/14 02:24:53;;;;;;;11.85;6.50;;;;;;;1.45;31.84;99719.63;5011520;28;20259;-63
2022/03/14 02:27:38;;;;;;;11.68;6.47;;;;;;;1.62;31.58;99729.66;5011826;28;20092;-63
2022/03/14 02:30:23;;;;;;;13.18;5.90;;;;;;;1.67;31.62;99730.44;5010296;28;20049;-63
2022/03/14 02:33:09;;;;;;;15.00;7.43;;;;;;;1.54;31.66;99741.84;5010071;28;20062;-63
2022/03/14 02:35:53;;;;;;;12.30;6.53;;;;;;;1.62;31.91;99740.00;5011271;28;20050;-62
2022/03/14 02:38:39;;;;;;;13.57;7.10;;;;;;;1.43;31.83;99722.22;5011243;28;20441;-64
2022/03/14 02:41:25;;;;;;;11.75;6.97;;;;;;;1.55;31.73;99753.91;5010170;28;20050;-63
2022/03/14 02:44:13;;;;;;;12.15;6.75;;;;;;;1.62;31.79;99728.84;5011075;28;20111;-62
2022/03/14 02:46:58;;;;;;;15.82;6.75;;;;;;;1.86;31.20;99735.28;5011315;28;20054;-62
2022/03/14 02:49:43;;;;;;;12.82;6.38;;;;;;;1.77;31.36;99727.69;5024046;28;20830;-62
2022/03/14 02:52:28;;;;;;;13.20;6.30;;;;;;;1.77;31.31;99730.28;5010087;28;20049;-63
2022/03/14 02:55:17;;;;;;;12.45;5.97;;;;;;;1.70;31.60;99751.06;5011147;28;20104;-62
2022/03/14 02:58:02;;;;;;;13.70;6.75;;;;;;;1.69;31.52;99733.88;5011172;28;20413;-62
2022/03/14 03:00:46;;;;;;;14.82;6.35;;;;;;;1.79;31.46;99746.63;5011050;28;20351;-62
2022/03/14 03:03:32;;;;;;;15.07;6.63;;;;;;;1.73;31.51;99755.31;5011209;28;20401;-62
2022/03/14 03:06:23;;;;;;;11.50;6.68;;;;;;;1.83;31.26;99753.44;5011015;28;20053;-62
2022/03/14 03:09:08;;;;;;;13.50;6.63;;;;;;;1.71;31.53;99747.59;5011105;28;20054;-62
2022/03/14 03:11:56;;;;;;;14.20;6.20;;;;;;;1.68;31.51;99767.47;5011172;28;20117;-62
2022/03/14 03:14:41;;;;;;;16.38;6.00;;;;;;;1.72;31.39;99774.28;5010916;28;20069;-62
2022/03/14 03:17:26;;;;;;;12.55;6.22;;;;;;;1.65;31.58;99763.19;5023801;28;20042;-62
2022/03/14 03:20:12;;;;;;;13.35;6.65;;;;;;;1.58;31.83;99764.19;5010708;28;20116;-63
2022/03/14 03:22:56;;;;;;;11.70;6.95;;;;;;;1.51;31.81;99762.56;5023665;28;20053;-63
2022/03/14 03:25:41;;;;;;;12.43;6.45;;;;;;;1.53;32.40;99787.50;5010736;28;20490;-62
2022/03/14 03:28:26;;;;;;;12.10;6.57;;;;;;;1.38;32.71;99769.63;5010619;28;20160;-62
2022/03/14 03:31:13;;;;;;;12.65;6.90;;;;;;;1.55;32.30;99774.56;5010948;28;20088;-63
2022/03/14 03:33:58;;;;;;;11.13;6.55;;;;;;;1.49;32.73;99767.75;5010949;28;20054;-63
2022/03/14 03:36:43;;;;;;;13.15;7.07;;;;;;;1.57;32.45;99768.50;5009584;28;20057;-62
2022/03/14 03:39:30;;;;;;;15.25;6.80;;;;;;;1.55;32.48;99770.25;5009949;28;20409;-64
2022/03/14 03:42:15;;;;;;;14.60;6.90;;;;;;;1.59;32.13;99771.06;5025650;28;20046;-62
2022/03/14 03:44:59;;;;;;;14.57;6.93;;;;;;;1.54;32.36;99781.47;5014193;28;20061;-62
2022/03/14 03:47:46;;;;;;;12.52;6.80;;;;;;;1.35;32.64;99789.47;5013764;28;20042;-63
2022/03/14 03:50:31;;;;;;;14.60;7.40;;;;;;;1.37;32.64;99789.47;5014028;28;20133;-62
2022/03/14 03:53:16;;;;;;;12.88;6.25;;;;;;;1.39;32.84;99789.44;5014043;28;20053;-61
2022/03/14 03:56:01;;;;;;;14.80;7.50;;;;;;;1.31;33.01;99800.72;5012975;28;20052;-62
2022/03/14 03:58:47;;;;;;;13.30;6.63;;;;;;;1.31;33.05;99803.31;5013867;28;20442;-63
2022/03/14 04:01:32;;;;;;;16.08;7.07;;;;;;;1.18;33.12;99804.34;5022873;28;20042;-62
2022/03/14 04:04:17;;;;;;;16.27;7.72;;;;;;;1.00;33.62;99823.50;5002281;28;20449;-62
2022/03/14 04:07:02;;;;;;;11.60;5.53;;;;;;;1.00;33.52;99797.69;5010630;28;20050;-63
2022/03/14 04:09:47;;;;;;;11.95;7.40;;;;;;;1.09;33.38;99805.31;5015487;28;20481;-62
2022/03/14 04:12:31;;;;;;;13.88;7.00;;;;;;;1.14;33.44;99798.38;5025902;28;20046;-62
2022/03/14 04:15:18;;;;;;;13.35;7.30;;;;;;;0.91;33.98;99804.69;5005405;28;20049;-62
2022/03/14 04:18:03;;;;;;;14.05;7.18;;;;;;;0.98;33.81;99808.00;4997618;28;20049;-61
2022/03/14 04:20:49;;;;;;;13.35;7.13;;;;;;;1.13;33.79;99813.88;5003574;28;20208;-61
2022/03/14 04:23:34;;;;;;;15.80;7.80;;;;;;;0.84;34.25;99821.97;5019047;28;20057;-62
2022/03/14 04:26:19;;;;;;;15.15;7.45;;;;;;;0.91;34.32;99816.72;5010557;28;20047;-62
2022/03/14 04:29:04;;;;;;;13.70;7.50;;;;;;;1.00;34.20;99821.75;5007783;28;20229;-62
2022/03/14 04:31:49;;;;;;;16.35;7.65;;;;;;;0.65;34.88;99817.88;4996795;28;20050;-62
2022/03/14 04:34:34;;;;;;;17.77;7.72;;;;;;;0.69;35.00;99822.13;5006786;28;20051;-61
2022/03/14 04:37:19;;;;;;;13.75;7.50;;;;;;;0.71;34.82;99825.53;5006692;28;20518;-62
2022/03/14 04:40:04;;;;;;;14.52;7.93;;;;;;;0.85;34.76;99833.97;4993046;28;20082;-61
2022/03/14 04:42:49;;;;;;;20.50;8.00;;;;;;;0.77;34.70;99819.47;4992856;28;20038;-62
2022/03/14 04:45:36;;;;;;;12.77;6.97;;;;;;;0.85;34.92;99826.25;4995525;28;20547;-62
2022/03/14 04:48:20;;;;;;;17.40;8.93;;;;;;;0.78;35.13;99837.50;5025986;28;20042;-61
2022/03/14 04:51:05;;;;;;;13.50;8.23;;;;;;;0.61;35.36;99833.38;5013474;28;20054;-64
2022/03/14 04:53:50;;;;;;;14.93;8.05;;;;;;;0.57;35.62;99839.44;5011972;28;20041;-62
2022/03/14 04:56:35;;;;;;;18.25;8.07;;;;;;;0.49;36.08;99830.91;5011664;28;20192;-62
2022/03/14 04:59:19;;;;;;;18.33;8.02;;;;;;;0.58;35.58;99837.72;5013038;28;20042;-61
2022/03/14 05:02:06;;;;;;;14.10;7.57;;;;;;;0.74;35.18;99830.66;5012937;28;20121;-62
2022/03/14 05:04:52;;;;;;;14.52;7.43;;;;;;;0.70;35.43;99829.00;4997910;28;20617;-62
2022/03/14 05:07:39;;;;;;;18.48;7.85;;;;;;;0.72;35.17;99837.56;5012684;28;20486;-62
2022/03/14 05:10:24;;;;;;;13.15;6.80;;;;;;;0.66;35.27;99845.38;5012505;28;20402;-62
2022/03/14 05:13:12;;;;;;;13.50;7.72;;;;;;;0.68;35.31;99849.66;5012481;28;20053;-62
2022/03/14 05:15:57;;;;;;;13.35;7.55;;;;;;;0.85;35.06;99851.19;5009072;28;20133;-62
2022/03/14 05:18:42;;;;;;;12.15;7.55;;;;;;;0.69;35.18;99842.75;5006217;28;20088;-60
2022/03/14 05:21:27;;;;;;;19.65;9.32;;;;;;;0.45;35.85;99860.19;5015337;28;20037;-61
2022/03/14 05:24:11;;;;;;;16.13;8.90;;;;;;;0.44;35.81;99855.91;5012852;28;20152;-62
2022/03/14 05:26:58;;;;;;;17.25;8.32;;;;;;;0.57;35.75;99851.50;5010773;28;20048;-59
2022/03/14 05:29:42;;;;;;;16.08;7.93;;;;;;;0.64;35.73;99860.84;5010450;28;20050;-59
2022/03/14 05:32:27;;;;;;;15.40;7.93;;;;;;;0.62;35.78;99857.44;5010859;28;20454;-62
2022/03/14 05:35:12;;;;;;;13.32;7.20;;;;;;;1.08;34.75;99875.88;5012108;28;20050;-70
2022/03/14 05:37:57;;;;;;;14.00;8.93;;;;;;;0.90;35.30;99876.97;5012235;28;20053;-60
2022/03/14 05:40:42;;;;;;;13.13;7.88;;;;;;;1.23;34.62;99883.47;5012155;28;20065;-61
2022/03/14 05:43:27;;;;;;;14.68;7.65;;;;;;;1.21;34.77;99897.22;5010551;28;20053;-63
2022/03/14 05:46:11;;;;;;;13.05;7.22;;;;;;;1.29;34.69;99898.00;5011809;28;20100;-63
2022/03/14 05:48:56;;;;;;;15.23;8.18;;;;;;;1.07;35.34;99906.00;5010735;28;20068;-63
2022/03/14 05:51:41;;;;;;;16.42;8.65;;;;;;;0.77;35.83;99902.03;4997290;28;20125;-63
2022/03/14 05:54:26;;;;;;;16.02;8.05;;;;;;;1.05;35.61;99912.03;5010563;28;20056;-65
2022/03/14 05:57:11;;;;;;;16.20;7.68;;;;;;;1.40;35.01;99910.81;5010634;28;20473;-62
2022/03/14 05:59:56;;;;;;;15.57;8.15;;;;;;;1.39;35.03;99909.06;4994744;28;20064;-62
2022/03/14 06:02:45;;;;;;;14.85;7.72;;;;;;;1.74;34.35;99914.66;4991856;28;20387;-62
2022/03/14 06:05:30;;;;;;;17.15;9.05;;;;;;;1.77;34.15;99917.22;4990901;28;20046;-60
2022/03/14 06:08:16;;;;;;;19.35;8.55;;;;;;;1.99;33.77;99918.63;4991799;28;20043;-60
2022/03/14 06:11:06;;;;;;;16.42;8.23;;;;;;;2.07;33.75;99921.97;4994674;28;20054;-60
2022/03/14 06:13:51;;;;;;;15.85;8.73;;;;;;;2.11;33.56;99927.91;4992163;28;20052;-59
2022/03/14 06:16:38;;;;;;;16.92;8.45;;;;;;;2.07;33.57;99938.31;4991801;28;20050;-63
2022/03/14 06:19:23;;;;;;;19.40;8.90;;;;;;;2.25;33.04;99941.53;4990619;28;20046;-64
2022/03/14 06:22:08;;;;;;;18.02;8.48;;;;;;;2.41;33.01;99942.13;5004739;28;20070;-70
2022/03/14 06:24:54;;;;;;;17.85;7.82;;;;;;;3.30;32.98;99940.56;4997210;28;20053;-66
2022/03/14 06:27:39;;;;;;;17.60;9.15;;;;;;;3.33;34.49;99948.28;5009974;28;20048;-64
2022/03/14 06:30:24;;;;;;;16.77;9.13;;;;;;;3.16;32.54;99947.75;5020888;28;20128;-67
2022/03/14 06:33:09;;;;;;;14.55;8.00;;;;;;;2.63;33.17;99954.72;5025805;28;20440;-64
2022/03/14 06:35:54;;;;;;;17.13;7.88;;;;;;;2.94;32.65;99946.41;5005605;28;20388;-66
2022/03/14 06:38:39;;;;;;;15.57;8.32;;;;;;;3.26;32.23;99948.44;5010893;28;20053;-64
2022/03/14 06:41:24;;;;;;;16.42;8.60;;;;;;;3.25;32.37;99957.09;5010936;28;20126;-64
2022/03/14 06:44:09;;;;;;;15.45;8.07;;;;;;;3.59;32.02;99959.00;5012482;28;20050;-62
2022/03/14 06:46:55;;;;;;;16.33;9.05;;;;;;;3.42;31.91;99959.34;5018333;28;20050;-64
2022/03/14 06:49:42;;;;;;;14.82;7.95;;;;;;;3.65;32.02;99968.41;5011767;28;20050;-69
2022/03/14 06:52:27;;;;;;;19.38;8.68;;;;;;;3.68;32.04;99965.72;5012363;28;20053;-63
2022/03/14 06:55:12;;;;;;;16.25;8.48;;;;;;;3.96;35.30;99969.47;5010881;28;20161;-63
2022/03/14 06:57:57;;;;;;;16.52;8.27;;;;;;;3.90;32.72;99978.25;5010170;28;20480;-64
2022/03/14 07:00:42;;;;;;;16.25;8.65;;;;;;;4.27;31.59;99967.06;5009997;28;20054;-65
2022/03/14 07:03:29;;;;;;;16.73;8.52;;;;;;;4.15;31.36;99963.00;5009934;28;20045;-64
2022/03/14 07:06:14;;;;;;;16.98;8.85;;;;;;;3.97;32.12;99974.63;5024157;28;20046;-65
2022/03/14 07:08:59;;;;;;;15.45;8.75;;;;;;;4.49;31.37;99945.78;5026030;28;20050;-64
2022/03/14 07:11:44;;;;;;;15.93;8.15;;;;;;;4.97;30.56;99967.09;5017241;28;20405;-64
2022/03/14 07:14:28;;;;;;;16.52;8.50;;;;;;;4.88;30.91;99973.38;5011416;28;20038;-65
2022/03/14 07:17:13;;;;;;;16.17;7.60;;;;;;;5.36;30.15;99986.00;5012644;28;20046;-64
2022/03/14 07:19:57;;;;;;;15.10;8.15;;;;;;;6.00;29.26;99994.59;5013676;28;20046;-63
2022/03/14 07:22:58;;;;;;;16.40;8.13;;;;;;;6.22;29.13;100000.03;5013940;28;20057;-65
2022/03/14 07:25:43;;;;;;;16.05;9.27;;;;;;;5.95;29.38;99994.75;5013015;28;20512;-64
2022/03/14 07:28:28;;;;;;;21.75;9.05;;;;;;;6.01;29.36;100001.50;5009856;28;20069;-64
2022/03/14 07:31:13;;;;;;;17.13;9.38;;;;;;;6.45;29.06;100001.06;5013516;28;20037;-65
2022/03/14 07:33:58;;;;;;;15.38;7.85;;;;;;;6.45;28.97;100006.25;4997622;28;20513;-64
2022/03/14 07:36:43;;;;;;;18.15;8.55;;;;;;;7.21;27.89;100002.94;5012693;28;20041;-65
2022/03/14 07:39:29;;;;;;;19.15;9.05;;;;;;;6.88;28.73;100006.63;5011461;28;20061;-66
2022/03/14 07:42:15;;;;;;;19.20;8.63;;;;;;;7.30;28.21;100012.16;5040196;28;20606;-66
2022/03/14 07:45:00;;;;;;;15.07;8.35;;;;;;;7.49;28.34;100004.53;5011505;28;20069;-65
2022/03/14 07:47:45;;;;;;;15.15;8.07;;;;;;;7.54;27.95;100006.16;5012890;28;20066;-65
2022/03/14 07:50:30;;;;;;;15.82;8.63;;;;;;;7.77;28.16;100013.13;5012013;28;20482;-64
2022/03/14 07:53:15;;;;;;;12.75;7.90;;;;;;;8.53;27.16;100021.59;5013399;28;20099;-62
2022/03/14 07:56:00;;;;;;;17.42;8.13;;;;;;;8.38;27.65;100026.50;5011546;28;20384;-67
2022/03/14 07:58:46;;;;;;;19.20;7.43;;;;;;;8.66;27.17;100009.78;5013715;28;20432;-64
2022/03/14 08:01:31;;;;;;;15.07;8.43;;;;;;;8.32;28.18;100013.69;5037697;28;20452;-67
2022/03/14 08:04:16;;;;;;;17.23;7.72;;;;;;;9.02;27.45;100029.22;5012705;28;20124;-67
2022/03/14 08:07:06;;;;;;;12.73;6.72;;;;;;;9.53;26.86;100028.78;5013844;28;20050;-67
2022/03/14 08:09:50;;;;;;;15.15;7.35;;;;;;;9.31;27.36;100057.66;5015230;28;20445;-67
2022/03/14 08:13:01;;;;;;;12.52;6.75;;;;;;;8.67;28.96;100050.66;5013707;28;20387;-66
2022/03/14 08:15:46;;;;;;;11.50;6.50;;;;;;;9.65;28.23;100050.94;5012293;28;20053;-67
2022/03/14 08:18:31;;;;;;;13.07;7.20;;;;;;;10.34;27.33;100056.59;5011053;28;20129;-66
2022/03/14 08:21:16;;;;;;;8.90;5.75;;;;;;;9.53;28.45;100075.88;5013417;28;20064;-66
2022/03/14 08:24:00;;;;;;;8.45;4.95;;;;;;;9.80;29.20;100056.41;5013527;28;20533;-66
2022/03/14 08:26:45;;;;;;;10.45;5.63;;;;;;;10.23;28.53;100071.94;5011753;28;20125;-66
2022/03/14 08:29:32;;;;;;;7.82;5.15;;;;;;;11.24;30.03;100054.94;5013280;28;20049;-66
2022/03/14 08:32:17;;;;;;;8.77;5.25;;;;;;;9.74;30.04;100084.56;5012112;28;20117;-67
2022/03/14 08:35:07;;;;;;;8.25;5.20;;;;;;;10.17;29.80;100066.97;5011846;28;20054;-67
2022/03/14 08:37:54;;;;;;;7.60;4.93;;;;;;;10.36;29.68;100064.38;5012133;28;20042;-66
2022/03/14 08:40:39;;;;;;;7.05;4.50;;;;;;;10.02;30.08;100089.50;4998409;28;20065;-67
2022/03/14 08:43:24;;;;;;;17.05;4.63;;;;;;;9.94;31.12;100069.72;5039910;28;20081;-72
2022/03/14 08:46:10;;;;;;;8.40;4.60;;;;;;;11.69;30.07;100064.00;5012109;28;20108;-70
2022/03/14 08:48:54;;;;;;;8.70;4.75;;;;;;;11.69;29.01;100065.75;5026022;28;20042;-69
2022/03/14 08:51:40;;;;;;;8.48;5.32;;;;;;;11.97;28.34;100068.69;5012049;28;20133;-69
2022/03/14 08:54:24;;;;;;;8.65;4.78;;;;;;;11.33;29.41;100057.09;5012327;28;20125;-67
2022/03/14 08:57:09;;;;;;;11.90;4.90;;;;;;;11.42;30.30;100048.78;5013088;28;20045;-67
2022/03/14 08:59:54;;;;;;;9.52;5.35;;;;;;;11.13;29.89;100061.56;4998291;28;20062;-68
2022/03/14 09:02:41;;;;;;;9.13;5.07;;;;;;;11.39;29.86;100079.56;5012794;28;20478;-67
2022/03/14 09:05:26;;;;;;;8.35;4.57;;;;;;;12.15;29.00;100056.38;5012601;28;20049;-70
2022/03/14 09:08:11;;;;;;;10.70;4.65;;;;;;;11.65;30.01;100072.94;5012304;28;20410;-71
2022/03/14 09:10:55;;;;;;;8.05;4.70;;;;;;;12.55;28.73;100079.63;4992221;28;20042;-71
2022/03/14 09:13:40;;;;;;;9.23;5.15;;;;;;;11.58;29.97;100097.81;4991994;28;20038;-67
2022/03/14 09:16:25;;;;;;;9.77;4.38;;;;;;;12.18;30.25;100080.72;4991432;28;20046;-67
2022/03/14 09:19:10;;;;;;;11.38;4.82;;;;;;;12.42;29.48;100085.53;4991917;28;20077;-66
2022/03/14 09:21:56;;;;;;;7.82;4.13;;;;;;;13.81;28.24;100071.47;4992939;28;20072;-67
2022/03/14 09:24:41;;;;;;;8.07;4.20;;;;;;;13.33;27.62;100085.72;4993021;28;20054;-66
2022/03/14 09:27:26;;;;;;;7.72;4.18;;;;;;;13.54;27.60;100085.41;5005377;28;20058;-65
2022/03/14 09:30:13;;;;;;;7.55;4.68;;;;;;;13.83;26.80;100081.91;4992767;28;20038;-66
2022/03/14 09:32:57;;;;;;;5.60;3.88;;;;;;;14.10;26.45;100097.81;4992468;28;20117;-66
2022/03/14 09:35:42;;;;;;;7.68;4.47;;;;;;;13.13;27.23;100115.81;4992785;28;20065;-67
2022/03/14 09:38:26;;;;;;;7.63;4.53;;;;;;;13.12;27.33;100108.88;4992134;28;20039;-65
2022/03/14 09:41:16;;;;;;;7.93;4.60;;;;;;;12.61;27.81;100118.69;4992549;28;20410;-65
2022/03/14 09:44:02;;;;;;;8.73;4.35;;;;;;;13.22;27.84;100088.13;4993129;28;20070;-65
2022/03/14 09:46:48;;;;;;;9.30;4.00;;;;;;;14.23;25.88;100084.72;5021697;28;20050;-65
2022/03/14 09:49:36;;;;;;;9.18;4.57;;;;;;;13.67;27.13;100122.38;5028785;28;20152;-66
2022/03/14 09:52:22;;;;;;;7.78;4.50;;;;;;;13.37;26.28;100107.41;5012593;28;20112;-66
2022/03/14 09:55:08;;;;;;;6.75;4.22;;;;;;;13.09;26.31;100112.50;5010381;28;20053;-66
2022/03/14 09:57:53;;;;;;;7.07;3.97;;;;;;;14.81;25.00;100106.63;5011862;28;20065;-66
2022/03/14 10:00:38;;;;;;;6.55;4.25;;;;;;;15.27;24.26;100111.53;5011396;28;20485;-65
2022/03/14 10:03:23;;;;;;;7.13;3.95;;;;;;;14.76;24.13;100117.44;5024657;28;20433;-65
2022/03/14 10:06:08;;;;;;;8.18;4.35;;;;;;;14.01;24.24;100144.03;4999600;28;20084;-65
2022/03/14 10:08:53;;;;;;;6.20;3.70;;;;;;;14.26;24.38;100131.94;5012077;28;20046;-63
2022/03/14 10:11:39;;;;;;;7.30;4.55;;;;;;;13.84;25.04;100126.59;5011718;28;20069;-66
2022/03/14 10:14:24;;;;;;;7.32;4.25;;;;;;;14.31;24.19;100123.78;5011465;28;20528;-65
2022/03/14 10:17:09;;;;;;;8.80;4.13;;;;;;;15.50;23.05;100132.84;5011390;28;20103;-64
2022/03/14 10:19:57;;;;;;;6.65;3.95;;;;;;;14.09;23.35;100132.16;5011525;28;20057;-67
2022/03/14 10:22:42;;;;;;;6.75;3.95;;;;;;;14.34;23.37;100144.69;5010927;28;20096;-67
2022/03/14 10:25:30;;;;;;;8.13;4.10;;;;;;;14.58;23.10;100135.28;5011229;28;20072;-68
2022/03/14 10:28:15;;;;;;;7.28;4.20;;;;;;;13.90;23.69;100139.44;5010181;28;20125;-68
2022/03/14 10:31:02;;;;;;;6.00;3.83;;;;;;;14.16;23.81;100123.81;5010616;28;20045;-69
2022/03/14 10:33:48;;;;;;;7.93;4.65;;;;;;;15.50;22.57;100126.75;4982714;28;20119;-64
2022/03/14 10:36:53;;;;;;;5.57;3.58;;;;;;;15.30;22.31;100133.34;5011522;28;20045;-70
2022/03/14 10:39:38;;;;;;;6.70;4.20;;;;;;;15.23;22.21;100136.41;5011955;28;20049;-69
2022/03/14 10:42:23;;;;;;;8.15;3.80;;;;;;;15.21;22.17;100150.69;5011134;28;20355;-69
2022/03/14 10:45:15;;;;;;;7.00;3.53;;;;;;;15.59;23.45;100131.41;5011060;28;20046;-68
2022/03/14 10:48:02;;;;;;;6.15;3.72;;;;;;;16.44;21.56;100141.50;4991326;28;20062;-70
2022/03/14 10:50:46;;;;;;;6.65;4.05;;;;;;;14.86;22.83;100152.88;4993220;28;20141;-67
2022/03/14 10:53:34;;;;;;;7.78;3.72;;;;;;;15.51;22.09;100150.41;4995460;28;20509;-60
2022/03/14 10:56:27;;;;;;;6.65;3.72;;;;;;;-148.16;100.00;58328.31;4981056;28;20047;-63
2022/03/14 10:59:12;;;;;;;5.95;3.50;;;;;;;-148.16;100.00;58328.31;5007991;28;20050;-61
2022/03/14 11:01:58;;;;;;;5.68;3.50;;;;;;;-148.16;100.00;58328.31;4994393;28;20474;-59
2022/03/14 11:04:47;;;;;;;6.28;3.72;;;;;;;-148.16;100.00;58328.31;5008016;28;20054;-60
2022/03/14 11:07:32;;;;;;;5.65;3.50;;;;;;;-148.16;100.00;58328.31;4994937;28;20501;-60
2022/03/14 11:10:17;;;;;;;4.88;3.45;;;;;;;-148.16;100.00;58328.31;4995198;28;20038;-60
2022/03/14 11:13:12;;;;;;;7.78;3.30;;;;;;;-148.16;100.00;58328.31;4993964;28;20121;-60
2022/03/14 11:15:57;;;;;;;6.88;3.70;;;;;;;-148.16;100.00;58328.31;4995087;28;20077;-60
2022/03/14 11:18:43;;;;;;;7.93;3.40;;;;;;;-148.16;100.00;58328.31;4995048;28;20046;-60
2022/03/14 11:21:31;;;;;;;6.18;3.50;;;;;;;-148.16;100.00;58328.31;4994805;28;20050;-59
2022/03/14 11:24:17;;;;;;;6.38;3.50;;;;;;;-148.16;100.00;58328.31;4994694;28;20058;-60
2022/03/14 11:27:04;;;;;;;9.20;3.97;;;;;;;-148.16;100.00;58328.31;4995052;28;20054;-59
2022/03/14 11:29:52;;;;;;;5.22;3.42;;;;;;;-148.16;100.00;58328.31;4993921;28;20168;-60
2022/03/14 11:32:37;;;;;;;5.35;3.63;;;;;;;-148.16;100.00;58328.31;5007142;28;20104;-60
2022/03/14 11:35:22;;;;;;;6.82;4.00;;;;;;;-148.16;100.00;58328.31;4994768;28;20073;-61
2022/03/14 11:38:08;;;;;;;5.47;3.40;;;;;;;-148.16;100.00;58328.31;4995162;28;20046;-59
2022/03/14 11:40:53;;;;;;;5.47;2.90;;;;;;;-148.16;100.00;58328.31;4994678;28;20430;-59
2022/03/14 11:43:40;;;;;;;6.05;3.33;;;;;;;-148.16;100.00;58328.31;5007577;28;20050;-59
2022/03/14 11:46:25;;;;;;;6.20;3.60;;;;;;;-148.16;100.00;58328.31;5022804;28;20551;-59
2022/03/14 11:49:15;;;;;;;7.90;3.95;;;;;;;-148.16;100.00;58328.31;5013130;28;20065;-59
2022/03/14 11:52:10;;;;;;;5.55;3.35;;;;;;;-148.16;100.00;58328.31;4999365;28;20381;-59
2022/03/14 11:55:00;;;;;;;5.63;3.10;;;;;;;-148.16;100.00;58328.31;5013816;28;20046;-59
2022/03/14 11:57:47;;;;;;;7.03;3.25;;;;;;;-148.16;100.00;58328.31;5013937;28;20053;-59
2022/03/14 12:00:32;;;;;;;4.60;3.15;;;;;;;-148.16;100.00;58328.31;5012516;28;20061;-58
2022/03/14 12:03:36;;;;;;;6.55;3.65;;;;;;;-148.16;100.00;58328.31;5001432;28;20397;-59
2022/03/14 12:06:46;;;;;;;5.95;3.55;;;;;;;-148.16;100.00;58328.31;5012772;28;20042;-61
2022/03/14 12:09:31;;;;;;;7.70;3.08;;;;;;;-148.16;100.00;58328.31;5013910;28;20601;-62
2022/03/14 12:12:26;;;;;;;5.32;3.38;;;;;;;-148.16;100.00;58328.31;5012723;28;20038;-61
2022/03/14 12:15:13;;;;;;;8.48;3.22;;;;;;;-148.16;100.00;58328.31;4998865;28;20440;-62
2022/03/14 12:17:58;;;;;;;5.03;3.17;;;;;;;-148.16;100.00;58328.31;5013988;28;20500;-62
2022/03/14 12:20:43;;;;;;;5.32;3.10;;;;;;;-148.16;100.00;58328.31;5013625;28;20056;-61
2022/03/14 12:23:33;;;;;;;5.18;3.38;;;;;;;-148.16;100.00;58328.31;5012396;28;20494;-62
2022/03/14 12:26:25;;;;;;;6.28;3.40;;;;;;;-148.16;100.00;58328.31;4998942;28;20053;-62
2022/03/14 12:29:34;;;;;;;6.57;3.72;;;;;;;-148.16;100.00;58328.31;4998562;28;20401;-62
2022/03/14 12:32:32;;;;;;;7.68;4.05;;;;;;;-148.16;100.00;58328.31;5013116;28;20049;-61
2022/03/14 12:35:18;;;;;;;10.45;4.22;;;;;;;-148.16;100.00;58328.31;5011859;28;20076;-61
2022/03/14 12:38:14;;;;;;;4.47;2.72;;;;;;;-148.16;100.00;58328.31;5011479;28;20050;-65
2022/03/14 12:41:00;;;;;;;5.90;3.38;;;;;;;-148.16;100.00;58328.31;5006152;28;20069;-61
2022/03/14 12:44:20;;;;;;;5.85;4.07;;;;;;;-148.16;100.00;58328.31;5012355;28;20073;-61
2022/03/14 12:47:09;;;;;;;6.75;3.33;;;;;;;-148.16;100.00;58328.31;5013066;28;20049;-60
2022/03/14 12:49:53;;;;;;;8.93;3.22;;;;;;;-148.16;100.00;58328.31;5019957;28;20053;-59
2022/03/14 12:53:00;;;;;;;5.13;3.20;;;;;;;-148.16;100.00;58328.31;4993344;28;20057;-61
2022/03/14 12:55:47;;;;;;;6.60;3.22;;;;;;;-148.16;100.00;58328.31;4987218;28;20050;-62